sensor_id;sensor_type;location;lat;lon;timestamp;pressure;altitude;pressure_sealevel;temperature;humidity
53262;BME280;39658;51.090;-1.786;2024-01-11T00:02:00;102643.78;;;-0.07;100.00
53262;BME280;39658;51.090;-1.786;2024-01-11T00:04:28;102653.22;;;-0.14;100.00
53262;BME280;39658;51.090;-1.786;2024-01-11T00:06:54;102664.34;;;-0.24;100.00
53262;BME280;39658;51.090;-1.786;2024-01-11T00:09:21;102667.75;;;-0.30;100.00
53262;BME280;39658;51.090;-1.786;2024-01-11T00:11:49;102677.94;;;-0.44;100.00
53262;BME280;39658;51.090;-1.786;2024-01-11T00:14:15;102683.81;;;-0.60;100.00
53262;BME280;39658;51.090;-1.786;2024-01-11T00:16:42;102685.50;;;-0.62;100.00
53262;BME280;39658;51.090;-1.786;2024-01-11T00:19:09;102702.72;;;-0.67;100.00
53262;BME280;39658;51.090;-1.786;2024-01-11T00:21:37;102703.53;;;-0.72;100.00
53262;BME280;39658;51.090;-1.786;2024-01-11T00:24:04;102713.72;;;-0.87;100.00
53262;BME280;39658;51.090;-1.786;2024-01-11T00:26:29;102722.22;;;-0.96;100.00
53262;BME280;39658;51.090;-1.786;2024-01-11T00:28:56;102729.09;;;-0.98;100.00
53262;BME280;39658;51.090;-1.786;2024-01-11T00:31:23;102728.09;;;-1.06;100.00
53262;BME280;39658;51.090;-1.786;2024-01-11T00:33:50;102742.75;;;-1.08;100.00
53262;BME280;39658;51.090;-1.786;2024-01-11T00:36:19;102755.59;;;-1.14;100.00
53262;BME280;39658;51.090;-1.786;2024-01-11T00:38:47;102755.47;;;-1.22;100.00
53262;BME280;39658;51.090;-1.786;2024-01-11T00:41:14;102767.53;;;-1.24;100.00
53262;BME280;39658;51.090;-1.786;2024-01-11T00:43:41;102776.06;;;-1.30;100.00
53262;BME280;39658;51.090;-1.786;2024-01-11T00:46:08;102783.78;;;-1.33;100.00
53262;BME280;39658;51.090;-1.786;2024-01-11T00:48:34;102775.84;;;-1.43;100.00
53262;BME280;39658;51.090;-1.786;2024-01-11T00:51:01;102789.63;;;-1.43;100.00
53262;BME280;39658;51.090;-1.786;2024-01-11T00:53:30;102797.28;;;-1.51;100.00
53262;BME280;39658;51.090;-1.786;2024-01-11T00:55:58;102804.09;;;-1.54;100.00
53262;BME280;39658;51.090;-1.786;2024-01-11T00:58:25;102797.09;;;-1.61;100.00
53262;BME280;39658;51.090;-1.786;2024-01-11T01:00:52;102806.47;;;-1.67;100.00
53262;BME280;39658;51.090;-1.786;2024-01-11T01:03:19;102802.84;;;-1.76;100.00
53262;BME280;39658;51.090;-1.786;2024-01-11T01:05:45;102795.75;;;-1.87;100.00
53262;BME280;39658;51.090;-1.786;2024-01-11T01:08:12;102797.44;;;-1.89;100.00
53262;BME280;39658;51.090;-1.786;2024-01-11T01:10:39;102802.50;;;-1.95;100.00
53262;BME280;39658;51.090;-1.786;2024-01-11T01:13:07;102799.94;;;-1.93;100.00
53262;BME280;39658;51.090;-1.786;2024-01-11T01:15:34;102798.94;;;-2.02;100.00
53262;BME280;39658;51.090;-1.786;2024-01-11T01:18:00;102805.69;;;-2.07;100.00
53262;BME280;39658;51.090;-1.786;2024-01-11T01:20:27;102807.25;;;-2.15;100.00
53262;BME280;39658;51.090;-1.786;2024-01-11T01:22:55;102815.00;;;-2.15;100.00
53262;BME280;39658;51.090;-1.786;2024-01-11T01:25:21;102828.00;;;-2.12;100.00
53262;BME280;39658;51.090;-1.786;2024-01-11T01:27:48;102823.59;;;-2.16;100.00
53262;BME280;39658;51.090;-1.786;2024-01-11T01:30:16;102842.53;;;-2.19;100.00
53262;BME280;39658;51.090;-1.786;2024-01-11T01:32:43;102835.50;;;-2.24;100.00
53262;BME280;39658;51.090;-1.786;2024-01-11T01:35:09;102841.38;;;-2.33;100.00
53262;BME280;39658;51.090;-1.786;2024-01-11T01:37:36;102835.97;;;-2.44;100.00
53262;BME280;39658;51.090;-1.786;2024-01-11T01:40:04;102843.69;;;-2.45;100.00
53262;BME280;39658;51.090;-1.786;2024-01-11T01:42:31;102837.44;;;-2.54;100.00
53262;BME280;39658;51.090;-1.786;2024-01-11T01:44:57;102846.69;;;-2.63;100.00
53262;BME280;39658;51.090;-1.786;2024-01-11T01:47:26;102836.22;;;-2.69;100.00
53262;BME280;39658;51.090;-1.786;2024-01-11T01:49:54;102847.25;;;-2.77;100.00
53262;BME280;39658;51.090;-1.786;2024-01-11T01:52:22;102850.59;;;-2.81;100.00
53262;BME280;39658;51.090;-1.786;2024-01-11T01:54:50;102851.44;;;-2.82;100.00
53262;BME280;39658;51.090;-1.786;2024-01-11T01:57:18;102852.16;;;-2.88;100.00
53262;BME280;39658;51.090;-1.786;2024-01-11T01:59:45;102864.88;;;-2.95;100.00
53262;BME280;39658;51.090;-1.786;2024-01-11T02:02:15;102873.44;;;-2.98;100.00
53262;BME280;39658;51.090;-1.786;2024-01-11T02:04:44;102882.81;;;-3.01;100.00
53262;BME280;39658;51.090;-1.786;2024-01-11T02:07:11;102966.06;;;-3.09;100.00
53262;BME280;39658;51.090;-1.786;2024-01-11T02:09:38;102985.94;;;-3.06;100.00
53262;BME280;39658;51.090;-1.786;2024-01-11T02:12:06;103002.31;;;-3.04;100.00
53262;BME280;39658;51.090;-1.786;2024-01-11T02:14:37;103013.44;;;-3.07;100.00
53262;BME280;39658;51.090;-1.786;2024-01-11T02:17:04;103010.66;;;-3.13;100.00
53262;BME280;39658;51.090;-1.786;2024-01-11T02:19:30;102949.59;;;-3.14;100.00
53262;BME280;39658;51.090;-1.786;2024-01-11T02:22:05;102939.19;;;-3.17;100.00
53262;BME280;39658;51.090;-1.786;2024-01-11T02:24:36;102945.06;;;-3.22;100.00
53262;BME280;39658;51.090;-1.786;2024-01-11T02:27:04;102919.22;;;-3.24;100.00
53262;BME280;39658;51.090;-1.786;2024-01-11T02:29:31;102908.88;;;-3.24;100.00
53262;BME280;39658;51.090;-1.786;2024-01-11T02:31:59;102879.69;;;-3.23;100.00
53262;BME280;39658;51.090;-1.786;2024-01-11T02:34:27;102883.03;;;-3.26;100.00
53262;BME280;39658;51.090;-1.786;2024-01-11T02:36:54;102957.91;;;-3.24;100.00
53262;BME280;39658;51.090;-1.786;2024-01-11T02:39:23;102974.50;;;-3.14;100.00
53262;BME280;39658;51.090;-1.786;2024-01-11T02:41:56;102976.56;;;-3.02;100.00
53262;BME280;39658;51.090;-1.786;2024-01-11T02:44:23;102970.84;;;-2.89;100.00
53262;BME280;39658;51.090;-1.786;2024-01-11T02:46:50;102979.81;;;-2.76;100.00
53262;BME280;39658;51.090;-1.786;2024-01-11T02:49:17;102978.28;;;-2.68;100.00
53262;BME280;39658;51.090;-1.786;2024-01-11T02:51:44;102994.03;;;-2.59;100.00
53262;BME280;39658;51.090;-1.786;2024-01-11T02:54:10;102986.44;;;-2.53;100.00
53262;BME280;39658;51.090;-1.786;2024-01-11T02:56:37;102982.19;;;-2.49;100.00
53262;BME280;39658;51.090;-1.786;2024-01-11T02:59:05;102976.22;;;-2.48;100.00
53262;BME280;39658;51.090;-1.786;2024-01-11T03:01:32;102971.13;;;-2.45;100.00
53262;BME280;39658;51.090;-1.786;2024-01-11T03:03:59;102975.47;;;-2.44;100.00
53262;BME280;39658;51.090;-1.786;2024-01-11T03:06:26;102970.28;;;-2.44;100.00
53262;BME280;39658;51.090;-1.786;2024-01-11T03:08:53;102976.44;;;-2.39;100.00
53262;BME280;39658;51.090;-1.786;2024-01-11T03:11:19;102962.69;;;-2.38;100.00
53262;BME280;39658;51.090;-1.786;2024-01-11T03:13:46;102961.06;;;-2.32;100.00
53262;BME280;39658;51.090;-1.786;2024-01-11T03:16:14;102955.09;;;-2.31;100.00
53262;BME280;39658;51.090;-1.786;2024-01-11T03:18:41;102956.81;;;-2.30;100.00
53262;BME280;39658;51.090;-1.786;2024-01-11T03:21:07;102950.81;;;-2.29;100.00
53262;BME280;39658;51.090;-1.786;2024-01-11T03:23:34;102960.31;;;-2.28;100.00
53262;BME280;39658;51.090;-1.786;2024-01-11T03:26:01;102951.78;;;-2.24;100.00
53262;BME280;39658;51.090;-1.786;2024-01-11T03:28:28;102954.44;;;-2.21;100.00
53262;BME280;39658;51.090;-1.786;2024-01-11T03:30:54;102956.22;;;-2.19;100.00
53262;BME280;39658;51.090;-1.786;2024-01-11T03:33:22;102956.22;;;-2.19;100.00
53262;BME280;39658;51.090;-1.786;2024-01-11T03:35:49;102959.59;;;-2.21;100.00
53262;BME280;39658;51.090;-1.786;2024-01-11T03:38:16;102962.94;;;-2.25;100.00
53262;BME280;39658;51.090;-1.786;2024-01-11T03:40:42;102955.19;;;-2.25;100.00
53262;BME280;39658;51.090;-1.786;2024-01-11T03:43:09;102956.84;;;-2.29;100.00
53262;BME280;39658;51.090;-1.786;2024-01-11T03:45:36;102956.06;;;-2.26;100.00
53262;BME280;39658;51.090;-1.786;2024-01-11T03:48:03;102967.25;;;-2.26;100.00
53262;BME280;39658;51.090;-1.786;2024-01-11T03:50:31;102973.28;;;-2.27;100.00
53262;BME280;39658;51.090;-1.786;2024-01-11T03:52:58;102967.22;;;-2.27;100.00
53262;BME280;39658;51.090;-1.786;2024-01-11T03:55:25;102974.19;;;-2.25;100.00
53262;BME280;39658;51.090;-1.786;2024-01-11T03:57:51;102971.63;;;-2.23;100.00
53262;BME280;39658;51.090;-1.786;2024-01-11T04:00:19;102972.50;;;-2.23;100.00
53262;BME280;39658;51.090;-1.786;2024-01-11T04:02:46;102979.47;;;-2.20;100.00
53262;BME280;39658;51.090;-1.786;2024-01-11T04:05:13;102976.88;;;-2.20;100.00
53262;BME280;39658;51.090;-1.786;2024-01-11T04:07:41;102976.91;;;-2.19;100.00
53262;BME280;39658;51.090;-1.786;2024-01-11T04:10:08;102969.94;;;-2.21;100.00
53262;BME280;39658;51.090;-1.786;2024-01-11T04:12:35;102972.56;;;-2.20;100.00
53262;BME280;39658;51.090;-1.786;2024-01-11T04:15:03;102982.19;;;-2.14;100.00
53262;BME280;39658;51.090;-1.786;2024-01-11T04:17:29;102982.31;;;-2.08;100.00
53262;BME280;39658;51.090;-1.786;2024-01-11T04:19:56;102985.88;;;-2.03;100.00
53262;BME280;39658;51.090;-1.786;2024-01-11T04:22:23;102994.50;;;-2.02;100.00
53262;BME280;39658;51.090;-1.786;2024-01-11T04:24:51;102984.06;;;-2.07;100.00
53262;BME280;39658;51.090;-1.786;2024-01-11T04:27:18;102988.22;;;-2.13;100.00
53262;BME280;39658;51.090;-1.786;2024-01-11T04:29:44;102981.03;;;-2.25;100.00
53262;BME280;39658;51.090;-1.786;2024-01-11T04:32:11;102978.19;;;-2.38;100.00
53262;BME280;39658;51.090;-1.786;2024-01-11T04:34:38;102983.13;;;-2.47;100.00
53262;BME280;39658;51.090;-1.786;2024-01-11T04:37:05;102990.63;;;-2.58;100.00
53262;BME280;39658;51.090;-1.786;2024-01-11T04:39:32;102984.25;;;-2.71;100.00
53262;BME280;39658;51.090;-1.786;2024-01-11T04:42:00;102978.75;;;-2.83;100.00
53262;BME280;39658;51.090;-1.786;2024-01-11T04:44:27;102981.16;;;-2.91;100.00
53262;BME280;39658;51.090;-1.786;2024-01-11T04:46:54;102987.91;;;-2.96;100.00
53262;BME280;39658;51.090;-1.786;2024-01-11T04:49:20;103000.69;;;-3.00;100.00
53262;BME280;39658;51.090;-1.786;2024-01-11T04:51:47;103000.56;;;-3.05;100.00
53262;BME280;39658;51.090;-1.786;2024-01-11T04:54:14;103005.63;;;-3.08;100.00
53262;BME280;39658;51.090;-1.786;2024-01-11T04:56:41;103016.69;;;-3.14;100.00
53262;BME280;39658;51.090;-1.786;2024-01-11T04:59:09;103017.38;;;-3.19;100.00
53262;BME280;39658;51.090;-1.786;2024-01-11T05:01:35;103015.53;;;-3.23;100.00
53262;BME280;39658;51.090;-1.786;2024-01-11T05:04:02;103019.69;;;-3.29;100.00
53262;BME280;39658;51.090;-1.786;2024-01-11T05:06:29;103017.91;;;-3.31;100.00
53262;BME280;39658;51.090;-1.786;2024-01-11T05:08:55;103015.19;;;-3.36;100.00
53262;BME280;39658;51.090;-1.786;2024-01-11T05:11:23;103019.44;;;-3.38;100.00
53262;BME280;39658;51.090;-1.786;2024-01-11T05:13:51;103029.66;;;-3.41;100.00
53262;BME280;39658;51.090;-1.786;2024-01-11T05:16:20;103022.69;;;-3.44;100.00
53262;BME280;39658;51.090;-1.786;2024-01-11T05:18:47;103032.19;;;-3.43;100.00
53262;BME280;39658;51.090;-1.786;2024-01-11T05:21:14;103035.78;;;-3.37;100.00
53262;BME280;39658;51.090;-1.786;2024-01-11T05:23:41;103036.75;;;-3.34;100.00
53262;BME280;39658;51.090;-1.786;2024-01-11T05:26:08;103043.59;;;-3.34;100.00
53262;BME280;39658;51.090;-1.786;2024-01-11T05:28:35;103044.50;;;-3.34;100.00
53262;BME280;39658;51.090;-1.786;2024-01-11T05:31:05;103034.13;;;-3.35;100.00
53262;BME280;39658;51.090;-1.786;2024-01-11T05:33:34;103041.97;;;-3.32;100.00
53262;BME280;39658;51.090;-1.786;2024-01-11T05:36:01;103041.13;;;-3.31;100.00
53262;BME280;39658;51.090;-1.786;2024-01-11T05:38:27;103047.34;;;-3.25;100.00
53262;BME280;39658;51.090;-1.786;2024-01-11T05:40:54;103049.94;;;-3.25;100.00
53262;BME280;39658;51.090;-1.786;2024-01-11T05:43:21;103048.16;;;-3.26;100.00
53262;BME280;39658;51.090;-1.786;2024-01-11T05:45:48;103042.97;;;-3.27;100.00
53262;BME280;39658;51.090;-1.786;2024-01-11T05:48:15;103052.50;;;-3.25;100.00
53262;BME280;39658;51.090;-1.786;2024-01-11T05:50:44;103054.16;;;-3.27;100.00
53262;BME280;39658;51.090;-1.786;2024-01-11T05:53:11;103057.41;;;-3.34;100.00
53262;BME280;39658;51.090;-1.786;2024-01-11T05:55:37;103053.75;;;-3.40;100.00
53262;BME280;39658;51.090;-1.786;2024-01-11T05:58:05;103069.13;;;-3.44;100.00
53262;BME280;39658;51.090;-1.786;2024-01-11T06:00:32;103068.25;;;-3.44;100.00
53262;BME280;39658;51.090;-1.786;2024-01-11T06:02:58;103067.44;;;-3.43;100.00
53262;BME280;39658;51.090;-1.786;2024-01-11T06:05:25;103093.28;;;-3.41;100.00
53262;BME280;39658;51.090;-1.786;2024-01-11T06:07:53;103103.41;;;-3.48;100.00
53262;BME280;39658;51.090;-1.786;2024-01-11T06:10:20;103102.47;;;-3.50;100.00
53262;BME280;39658;51.090;-1.786;2024-01-11T06:12:47;103112.66;;;-3.54;100.00
53262;BME280;39658;51.090;-1.786;2024-01-11T06:15:13;103116.13;;;-3.54;100.00
53262;BME280;39658;51.090;-1.786;2024-01-11T06:17:40;103123.94;;;-3.51;100.00
53262;BME280;39658;51.090;-1.786;2024-01-11T06:20:08;103125.63;;;-3.51;100.00
53262;BME280;39658;51.090;-1.786;2024-01-11T06:22:35;103127.19;;;-3.56;100.00
53262;BME280;39658;51.090;-1.786;2024-01-11T06:25:04;103130.59;;;-3.57;100.00
53262;BME280;39658;51.090;-1.786;2024-01-11T06:27:30;103128.06;;;-3.56;100.00
53262;BME280;39658;51.090;-1.786;2024-01-11T06:29:57;103138.56;;;-3.50;100.00
53262;BME280;39658;51.090;-1.786;2024-01-11T06:32:24;103137.63;;;-3.53;100.00
53262;BME280;39658;51.090;-1.786;2024-01-11T06:34:51;103149.69;;;-3.52;100.00
53262;BME280;39658;51.090;-1.786;2024-01-11T06:37:17;103158.28;;;-3.52;100.00
53262;BME280;39658;51.090;-1.786;2024-01-11T06:39:44;103160.88;;;-3.52;100.00
53262;BME280;39658;51.090;-1.786;2024-01-11T06:42:12;103165.50;;;-3.41;100.00
53262;BME280;39658;51.090;-1.786;2024-01-11T06:44:39;103175.03;;;-3.39;100.00
53262;BME280;39658;51.090;-1.786;2024-01-11T06:47:06;103177.69;;;-3.36;100.00
53262;BME280;39658;51.090;-1.786;2024-01-11T06:49:33;103190.66;;;-3.34;100.00
53262;BME280;39658;51.090;-1.786;2024-01-11T06:52:00;103189.78;;;-3.35;100.00
53262;BME280;39658;51.090;-1.786;2024-01-11T06:54:28;103196.91;;;-3.28;100.00
53262;BME280;39658;51.090;-1.786;2024-01-11T06:56:55;103203.97;;;-3.20;100.00
53262;BME280;39658;51.090;-1.786;2024-01-11T06:59:23;103214.31;;;-3.20;100.00
53262;BME280;39658;51.090;-1.786;2024-01-11T07:01:50;103213.47;;;-3.19;100.00
53262;BME280;39658;51.090;-1.786;2024-01-11T07:04:17;103213.47;;;-3.19;100.00
53262;BME280;39658;51.090;-1.786;2024-01-11T07:06:44;103224.63;;;-3.20;100.00
53262;BME280;39658;51.090;-1.786;2024-01-11T07:09:10;103223.66;;;-3.24;100.00
53262;BME280;39658;51.090;-1.786;2024-01-11T07:11:37;103228.00;;;-3.23;100.00
53262;BME280;39658;51.090;-1.786;2024-01-11T07:14:04;103230.59;;;-3.23;100.00
53262;BME280;39658;51.090;-1.786;2024-01-11T07:16:32;103242.72;;;-3.19;100.00
53262;BME280;39658;51.090;-1.786;2024-01-11T07:18:59;103243.63;;;-3.18;100.00
53262;BME280;39658;51.090;-1.786;2024-01-11T07:21:26;103251.63;;;-3.11;100.00
53262;BME280;39658;51.090;-1.786;2024-01-11T07:23:56;103257.78;;;-3.05;100.00
53262;BME280;39658;51.090;-1.786;2024-01-11T07:26:23;103263.25;;;-2.96;100.00
53262;BME280;39658;51.090;-1.786;2024-01-11T07:28:50;103282.22;;;-2.94;100.00
53262;BME280;39658;51.090;-1.786;2024-01-11T07:31:20;103295.13;;;-2.94;100.00
53262;BME280;39658;51.090;-1.786;2024-01-11T07:33:48;103299.34;;;-2.98;100.00
53262;BME280;39658;51.090;-1.786;2024-01-11T07:36:15;103306.88;;;-3.04;100.00
53262;BME280;39658;51.090;-1.786;2024-01-11T07:38:42;103320.50;;;-3.08;100.00
53262;BME280;39658;51.090;-1.786;2024-01-11T07:41:09;103324.84;;;-3.07;100.00
53262;BME280;39658;51.090;-1.786;2024-01-11T07:43:36;103333.41;;;-3.08;100.00
53262;BME280;39658;51.090;-1.786;2024-01-11T07:46:03;103343.56;;;-3.13;100.00
53262;BME280;39658;51.090;-1.786;2024-01-11T07:48:31;103348.75;;;-3.13;100.00
53262;BME280;39658;51.090;-1.786;2024-01-11T07:50:59;103360.16;;;-3.06;100.00
53262;BME280;39658;51.090;-1.786;2024-01-11T07:53:26;103361.91;;;-3.05;100.00
53262;BME280;39658;51.090;-1.786;2024-01-11T07:55:53;103373.16;;;-3.03;100.00
53262;BME280;39658;51.090;-1.786;2024-01-11T07:58:19;103370.63;;;-3.01;100.00
53262;BME280;39658;51.090;-1.786;2024-01-11T08:00:47;103387.97;;;-2.97;100.00
53262;BME280;39658;51.090;-1.786;2024-01-11T08:03:14;103392.34;;;-2.95;100.00
53262;BME280;39658;51.090;-1.786;2024-01-11T08:05:41;103400.16;;;-2.93;100.00
53262;BME280;39658;51.090;-1.786;2024-01-11T08:08:11;103405.38;;;-2.92;100.00
53262;BME280;39658;51.090;-1.786;2024-01-11T08:10:38;103412.06;;;-2.97;100.00
53262;BME280;39658;51.090;-1.786;2024-01-11T08:13:04;103421.47;;;-2.99;100.00
53262;BME280;39658;51.090;-1.786;2024-01-11T08:15:31;103430.13;;;-2.97;100.00
53262;BME280;39658;51.090;-1.786;2024-01-11T08:17:58;103432.66;;;-2.98;100.00
53262;BME280;39658;51.090;-1.786;2024-01-11T08:20:25;103439.66;;;-2.96;100.00
53262;BME280;39658;51.090;-1.786;2024-01-11T08:22:52;103454.44;;;-2.92;100.00
53262;BME280;39658;51.090;-1.786;2024-01-11T08:25:21;103466.69;;;-2.84;100.00
53262;BME280;39658;51.090;-1.786;2024-01-11T08:27:48;103464.00;;;-2.88;100.00
53262;BME280;39658;51.090;-1.786;2024-01-11T08:30:15;103479.75;;;-2.80;100.00
53262;BME280;39658;51.090;-1.786;2024-01-11T08:32:42;103483.50;;;-2.72;100.00
53262;BME280;39658;51.090;-1.786;2024-01-11T08:35:09;103487.06;;;-2.68;100.00
53262;BME280;39658;51.090;-1.786;2024-01-11T08:37:37;103489.63;;;-2.68;100.00
53262;BME280;39658;51.090;-1.786;2024-01-11T08:40:04;103496.47;;;-2.70;100.00
53262;BME280;39658;51.090;-1.786;2024-01-11T08:42:33;103499.16;;;-2.67;100.00
53262;BME280;39658;51.090;-1.786;2024-01-11T08:44:59;103508.78;;;-2.61;100.00
53262;BME280;39658;51.090;-1.786;2024-01-11T08:47:32;103513.09;;;-2.62;100.00
53262;BME280;39658;51.090;-1.786;2024-01-11T08:49:59;103522.72;;;-2.58;100.00
53262;BME280;39658;51.090;-1.786;2024-01-11T08:52:25;103533.09;;;-2.56;100.00
53262;BME280;39658;51.090;-1.786;2024-01-11T08:54:52;103540.06;;;-2.54;100.00
53262;BME280;39658;51.090;-1.786;2024-01-11T08:57:19;103539.19;;;-2.54;100.00
53262;BME280;39658;51.090;-1.786;2024-01-11T08:59:47;103549.53;;;-2.54;100.00
53262;BME280;39658;51.090;-1.786;2024-01-11T09:02:14;103559.91;;;-2.53;100.00
53262;BME280;39658;51.090;-1.786;2024-01-11T09:04:40;103561.72;;;-2.50;100.00
53262;BME280;39658;51.090;-1.786;2024-01-11T09:07:07;103556.72;;;-2.45;100.00
53262;BME280;39658;51.090;-1.786;2024-01-11T09:09:34;103574.16;;;-2.38;100.00
53262;BME280;39658;51.090;-1.786;2024-01-11T09:12:01;103582.91;;;-2.35;100.00
53262;BME280;39658;51.090;-1.786;2024-01-11T09:14:28;103589.88;;;-2.32;100.00
53262;BME280;39658;51.090;-1.786;2024-01-11T09:16:56;103590.06;;;-2.26;100.00
53262;BME280;39658;51.090;-1.786;2024-01-11T09:19:23;103594.47;;;-2.23;100.00
53262;BME280;39658;51.090;-1.786;2024-01-11T09:21:50;103606.66;;;-2.19;100.00
53262;BME280;39658;51.090;-1.786;2024-01-11T09:24:17;103608.69;;;-2.10;100.00
53262;BME280;39658;51.090;-1.786;2024-01-11T09:26:44;103619.38;;;-2.00;100.00
53262;BME280;39658;51.090;-1.786;2024-01-11T09:29:10;103632.63;;;-1.90;100.00
53262;BME280;39658;51.090;-1.786;2024-01-11T09:31:37;103634.59;;;-1.83;100.00
53262;BME280;39658;51.090;-1.786;2024-01-11T09:34:05;103642.44;;;-1.80;100.00
53262;BME280;39658;51.090;-1.786;2024-01-11T09:36:33;103648.59;;;-1.76;100.00
53262;BME280;39658;51.090;-1.786;2024-01-11T09:39:00;103657.72;;;-1.60;100.00
53262;BME280;39658;51.090;-1.786;2024-01-11T09:41:28;103661.50;;;-1.51;100.00
53262;BME280;39658;51.090;-1.786;2024-01-11T09:43:56;103664.38;;;-1.40;100.00
53262;BME280;39658;51.090;-1.786;2024-01-11T09:46:27;103676.06;;;-1.25;100.00
53262;BME280;39658;51.090;-1.786;2024-01-11T09:48:55;103688.72;;;-1.06;100.00
53262;BME280;39658;51.090;-1.786;2024-01-11T09:51:25;103682.13;;;-0.96;100.00
53262;BME280;39658;51.090;-1.786;2024-01-11T09:53:53;103685.09;;;-0.84;100.00
53262;BME280;39658;51.090;-1.786;2024-01-11T09:56:21;103688.84;;;-0.73;100.00
53262;BME280;39658;51.090;-1.786;2024-01-11T09:58:50;103694.66;;;-0.51;100.00
53262;BME280;39658;51.090;-1.786;2024-01-11T10:01:17;103700.09;;;-0.42;100.00
53262;BME280;39658;51.090;-1.786;2024-01-11T10:03:44;103712.63;;;-0.25;100.00
53262;BME280;39658;51.090;-1.786;2024-01-11T10:06:12;103707.28;;;0.01;100.00
53262;BME280;39658;51.090;-1.786;2024-01-11T10:08:42;103709.28;;;0.12;100.00
53262;BME280;39658;51.090;-1.786;2024-01-11T10:11:09;103719.06;;;0.23;100.00
53262;BME280;39658;51.090;-1.786;2024-01-11T10:13:36;103716.78;;;0.35;100.00
53262;BME280;39658;51.090;-1.786;2024-01-11T10:16:05;103701.63;;;0.52;100.00
53262;BME280;39658;51.090;-1.786;2024-01-11T10:18:33;103688.06;;;0.64;100.00
53262;BME280;39658;51.090;-1.786;2024-01-11T10:21:00;103665.09;;;0.84;100.00
53262;BME280;39658;51.090;-1.786;2024-01-11T10:23:28;103637.63;;;0.94;100.00
53262;BME280;39658;51.090;-1.786;2024-01-11T10:25:57;103603.34;;;1.12;100.00
53262;BME280;39658;51.090;-1.786;2024-01-11T10:28:25;103565.59;;;1.31;100.00
53262;BME280;39658;51.090;-1.786;2024-01-11T10:30:52;103517.28;;;1.43;100.00
53262;BME280;39658;51.090;-1.786;2024-01-11T10:33:20;103436.03;;;1.58;100.00
53262;BME280;39658;51.090;-1.786;2024-01-11T10:35:47;103372.19;;;1.79;100.00
53262;BME280;39658;51.090;-1.786;2024-01-11T10:38:15;103306.50;;;1.97;100.00
53262;BME280;39658;51.090;-1.786;2024-01-11T10:40:42;103204.34;;;2.15;100.00
53262;BME280;39658;51.090;-1.786;2024-01-11T10:43:11;103058.75;;;2.41;100.00
53262;BME280;39658;51.090;-1.786;2024-01-11T10:45:38;103005.91;;;2.67;100.00
53262;BME280;39658;51.090;-1.786;2024-01-11T10:48:15;102953.88;;;3.89;100.00
53262;BME280;39658;51.090;-1.786;2024-01-11T10:50:43;102871.88;;;6.85;100.00
53262;BME280;39658;51.090;-1.786;2024-01-11T10:53:25;102819.00;;;8.78;100.00
53262;BME280;39658;51.090;-1.786;2024-01-11T10:55:56;102956.06;;;10.38;100.00
53262;BME280;39658;51.090;-1.786;2024-01-11T10:58:26;103083.06;;;10.21;100.00
53262;BME280;39658;51.090;-1.786;2024-01-11T11:00:54;103096.34;;;10.82;100.00
53262;BME280;39658;51.090;-1.786;2024-01-11T11:03:23;103103.03;;;10.94;100.00
53262;BME280;39658;51.090;-1.786;2024-01-11T11:05:53;103117.03;;;11.26;100.00
53262;BME280;39658;51.090;-1.786;2024-01-11T11:08:22;103131.25;;;11.78;100.00
53262;BME280;39658;51.090;-1.786;2024-01-11T11:10:55;103128.81;;;11.44;100.00
53262;BME280;39658;51.090;-1.786;2024-01-11T11:13:22;103126.44;;;10.75;100.00
53262;BME280;39658;51.090;-1.786;2024-01-11T11:15:52;103122.56;;;9.50;100.00
53262;BME280;39658;51.090;-1.786;2024-01-11T11:18:19;103111.81;;;8.78;100.00
53262;BME280;39658;51.090;-1.786;2024-01-11T11:20:46;103115.78;;;6.83;100.00
53262;BME280;39658;51.090;-1.786;2024-01-11T11:23:15;103103.41;;;6.10;100.00
53262;BME280;39658;51.090;-1.786;2024-01-11T11:25:45;103115.44;;;6.35;100.00
53262;BME280;39658;51.090;-1.786;2024-01-11T11:28:12;103111.75;;;8.35;100.00
53262;BME280;39658;51.090;-1.786;2024-01-11T11:30:41;103125.22;;;9.49;100.00
53262;BME280;39658;51.090;-1.786;2024-01-11T11:33:11;103128.25;;;8.43;100.00
53262;BME280;39658;51.090;-1.786;2024-01-11T11:35:42;103123.09;;;7.28;100.00
53262;BME280;39658;51.090;-1.786;2024-01-11T11:38:17;103125.22;;;6.99;100.00
53262;BME280;39658;51.090;-1.786;2024-01-11T11:40:46;103133.78;;;7.12;100.00
53262;BME280;39658;51.090;-1.786;2024-01-11T11:43:15;103138.06;;;7.19;100.00
53262;BME280;39658;51.090;-1.786;2024-01-11T11:45:42;103131.69;;;7.37;100.00
53262;BME280;39658;51.090;-1.786;2024-01-11T11:51:22;103143.59;;;7.63;100.00
53262;BME280;39658;51.090;-1.786;2024-01-11T11:53:50;103144.59;;;8.60;100.00
53262;BME280;39658;51.090;-1.786;2024-01-11T11:56:19;103149.06;;;9.02;100.00
53262;BME280;39658;51.090;-1.786;2024-01-11T11:58:46;103169.53;;;10.75;100.00
53262;BME280;39658;51.090;-1.786;2024-01-11T12:01:14;103159.47;;;11.20;100.00
53262;BME280;39658;51.090;-1.786;2024-01-11T12:03:43;103154.28;;;10.19;100.00
53262;BME280;39658;51.090;-1.786;2024-01-11T12:06:15;103152.28;;;9.93;100.00
53262;BME280;39658;51.090;-1.786;2024-01-11T12:08:43;103150.47;;;9.59;100.00
53262;BME280;39658;51.090;-1.786;2024-01-11T12:11:13;103158.53;;;9.11;100.00
53262;BME280;39658;51.090;-1.786;2024-01-11T12:13:41;103162.72;;;8.76;100.00
53262;BME280;39658;51.090;-1.786;2024-01-11T12:16:10;103159.88;;;9.29;100.00
53262;BME280;39658;51.090;-1.786;2024-01-11T12:18:37;103167.38;;;9.86;100.00
53262;BME280;39658;51.090;-1.786;2024-01-11T12:21:04;103169.50;;;9.70;100.00
53262;BME280;39658;51.090;-1.786;2024-01-11T12:23:31;103174.50;;;9.44;100.00
53262;BME280;39658;51.090;-1.786;2024-01-11T12:26:01;103174.59;;;8.97;100.00
53262;BME280;39658;51.090;-1.786;2024-01-11T12:28:28;103172.91;;;8.48;100.00
53262;BME280;39658;51.090;-1.786;2024-01-11T12:30:54;103172.03;;;7.30;100.00
53262;BME280;39658;51.090;-1.786;2024-01-11T12:33:21;103166.94;;;7.19;100.00
53262;BME280;39658;51.090;-1.786;2024-01-11T12:35:48;103166.09;;;7.14;100.00